sensor_id;sensor_type;location;lat;lon;timestamp;pressure;altitude;pressure_sealevel;temperature;humidity
77159;BME280;66129;45.890;13.714;2023-10-13T00:01:56;101569.25;;;17.33;100.00
77159;BME280;66129;45.890;13.714;2023-10-13T00:04:27;101559.75;;;17.35;100.00
77159;BME280;66129;45.890;13.714;2023-10-13T00:06:57;101559.75;;;17.34;100.00
77159;BME280;66129;45.890;13.714;2023-10-13T00:09:23;101577.94;;;17.46;100.00
77159;BME280;66129;45.890;13.714;2023-10-13T00:12:00;101566.69;;;17.42;100.00
77159;BME280;66129;45.890;13.714;2023-10-13T00:14:26;101564.06;;;17.39;100.00
77159;BME280;66129;45.890;13.714;2023-10-13T00:17:04;101569.34;;;17.50;100.00
77159;BME280;66129;45.890;13.714;2023-10-13T00:19:37;101580.59;;;17.59;100.00
77159;BME280;66129;45.890;13.714;2023-10-13T00:22:28;101569.28;;;17.45;100.00
77159;BME280;66129;45.890;13.714;2023-10-13T00:24:56;101576.22;;;17.46;100.00
77159;BME280;66129;45.890;13.714;2023-10-13T00:27:28;101571.88;;;17.36;100.00
77159;BME280;66129;45.890;13.714;2023-10-13T00:30:05;101576.16;;;17.33;100.00
77159;BME280;66129;45.890;13.714;2023-10-13T00:33:03;101577.84;;;17.29;100.00
77159;BME280;66129;45.890;13.714;2023-10-13T00:35:29;101580.50;;;17.35;100.00
77159;BME280;66129;45.890;13.714;2023-10-13T00:38:05;101572.72;;;17.35;100.00
77159;BME280;66129;45.890;13.714;2023-10-13T00:40:43;101577.03;;;17.36;100.00
77159;BME280;66129;45.890;13.714;2023-10-13T00:43:18;101570.03;;;17.26;100.00
77159;BME280;66129;45.890;13.714;2023-10-13T00:45:55;101573.50;;;17.25;100.00
77159;BME280;66129;45.890;13.714;2023-10-13T00:48:38;101576.94;;;17.24;100.00
77159;BME280;66129;45.890;13.714;2023-10-13T00:51:09;101563.97;;;17.24;100.00
77159;BME280;66129;45.890;13.714;2023-10-13T00:53:59;101564.84;;;17.23;100.00
77159;BME280;66129;45.890;13.714;2023-10-13T00:56:26;101567.44;;;17.28;100.00
77159;BME280;66129;45.890;13.714;2023-10-13T00:58:53;101558.81;;;17.29;100.00
77159;BME280;66129;45.890;13.714;2023-10-13T01:01:22;101563.13;;;17.28;100.00
77159;BME280;66129;45.890;13.714;2023-10-13T01:03:49;101571.88;;;17.36;100.00
77159;BME280;66129;45.890;13.714;2023-10-13T01:06:18;101569.25;;;17.39;100.00
77159;BME280;66129;45.890;13.714;2023-10-13T01:08:46;101562.34;;;17.41;100.00
77159;BME280;66129;45.890;13.714;2023-10-13T01:11:16;101569.34;;;17.54;100.00
77159;BME280;66129;45.890;13.714;2023-10-13T01:13:42;101558.03;;;17.40;100.00
77159;BME280;66129;45.890;13.714;2023-10-13T01:16:08;101558.91;;;17.42;100.00
77159;BME280;66129;45.890;13.714;2023-10-13T01:18:34;101552.00;;;17.40;100.00
77159;BME280;66129;45.890;13.714;2023-10-13T01:21:12;101553.75;;;17.44;100.00
77159;BME280;66129;45.890;13.714;2023-10-13T01:23:40;101542.50;;;17.46;100.00
77159;BME280;66129;45.890;13.714;2023-10-13T01:26:07;101552.94;;;17.60;100.00
77159;BME280;66129;45.890;13.714;2023-10-13T01:28:34;101553.81;;;17.62;100.00
77159;BME280;66129;45.890;13.714;2023-10-13T01:31:10;101556.44;;;17.68;100.00
77159;BME280;66129;45.890;13.714;2023-10-13T01:33:38;101547.78;;;17.64;100.00
77159;BME280;66129;45.890;13.714;2023-10-13T01:36:04;101548.63;;;17.63;100.00
77159;BME280;66129;45.890;13.714;2023-10-13T01:38:35;101552.97;;;17.61;100.00
77159;BME280;66129;45.890;13.714;2023-10-13T01:41:05;101556.44;;;17.66;100.00
77159;BME280;66129;45.890;13.714;2023-10-13T01:43:31;101548.66;;;17.68;100.00
77159;BME280;66129;45.890;13.714;2023-10-13T01:45:56;101546.06;;;17.63;100.00
77159;BME280;66129;45.890;13.714;2023-10-13T01:48:22;101544.31;;;17.62;100.00
77159;BME280;66129;45.890;13.714;2023-10-13T01:50:47;101547.78;;;17.67;100.00
77159;BME280;66129;45.890;13.714;2023-10-13T01:53:17;101545.19;;;17.66;100.00
77159;BME280;66129;45.890;13.714;2023-10-13T01:55:44;101547.78;;;17.64;100.00
77159;BME280;66129;45.890;13.714;2023-10-13T02:00:41;101547.78;;;17.67;100.00
77159;BME280;66129;45.890;13.714;2023-10-13T02:03:08;101557.31;;;17.73;100.00
77159;BME280;66129;45.890;13.714;2023-10-13T02:05:40;101548.66;;;17.71;100.00
77159;BME280;66129;45.890;13.714;2023-10-13T02:08:09;101551.25;;;17.78;100.00
77159;BME280;66129;45.890;13.714;2023-10-13T02:10:36;101541.75;;;17.70;100.00
77159;BME280;66129;45.890;13.714;2023-10-13T02:13:13;101550.41;;;17.79;100.00
77159;BME280;66129;45.890;13.714;2023-10-13T02:15:41;101535.63;;;17.54;100.00
77159;BME280;66129;45.890;13.714;2023-10-13T02:18:15;101548.59;;;17.56;100.00
77159;BME280;66129;45.890;13.714;2023-10-13T02:21:04;101537.34;;;17.45;100.00
77159;BME280;66129;45.890;13.714;2023-10-13T02:23:30;101531.25;;;17.41;100.00
77159;BME280;66129;45.890;13.714;2023-10-13T02:26:04;101540.78;;;17.41;100.00
77159;BME280;66129;45.890;13.714;2023-10-13T02:28:37;101525.16;;;17.30;100.00
77159;BME280;66129;45.890;13.714;2023-10-13T02:31:03;101541.59;;;17.32;100.00
77159;BME280;66129;45.890;13.714;2023-10-13T02:33:29;101543.34;;;17.38;100.00
77159;BME280;66129;45.890;13.714;2023-10-13T02:36:00;101532.03;;;17.24;100.00
77159;BME280;66129;45.890;13.714;2023-10-13T02:38:29;101533.72;;;17.20;100.00
77159;BME280;66129;45.890;13.714;2023-10-13T02:41:03;101536.25;;;17.11;100.00
77159;BME280;66129;45.890;13.714;2023-10-13T02:43:35;101532.75;;;17.00;100.00
77159;BME280;66129;45.890;13.714;2023-10-13T02:46:01;101535.34;;;17.00;100.00
77159;BME280;66129;45.890;13.714;2023-10-13T02:48:27;101521.53;;;16.98;100.00
77159;BME280;66129;45.890;13.714;2023-10-13T02:51:05;101520.63;;;16.98;100.00
77159;BME280;66129;45.890;13.714;2023-10-13T02:53:41;101511.97;;;16.91;100.00
77159;BME280;66129;45.890;13.714;2023-10-13T02:56:06;101528.38;;;16.93;100.00
77159;BME280;66129;45.890;13.714;2023-10-13T02:58:33;101528.38;;;16.89;100.00
77159;BME280;66129;45.890;13.714;2023-10-13T03:01:22;101539.66;;;16.98;100.00
77159;BME280;66129;45.890;13.714;2023-10-13T03:03:54;101535.38;;;17.03;100.00
77159;BME280;66129;45.890;13.714;2023-10-13T03:06:22;101524.09;;;16.98;100.00
77159;BME280;66129;45.890;13.714;2023-10-13T03:08:49;101536.22;;;17.02;100.00
77159;BME280;66129;45.890;13.714;2023-10-13T03:11:14;101534.50;;;17.03;100.00
77159;BME280;66129;45.890;13.714;2023-10-13T03:13:47;101538.78;;;16.99;100.00
77159;BME280;66129;45.890;13.714;2023-10-13T03:16:14;101541.34;;;16.95;100.00
77159;BME280;66129;45.890;13.714;2023-10-13T03:18:45;101534.47;;;16.94;100.00
77159;BME280;66129;45.890;13.714;2023-10-13T03:21:20;101533.59;;;16.96;100.00
77159;BME280;66129;45.890;13.714;2023-10-13T03:23:58;101525.81;;;16.98;100.00
77159;BME280;66129;45.890;13.714;2023-10-13T03:26:32;101535.38;;;17.06;100.00
77159;BME280;66129;45.890;13.714;2023-10-13T03:29:05;101531.88;;;17.00;100.00
77159;BME280;66129;45.890;13.714;2023-10-13T03:31:38;101527.59;;;17.03;100.00
77159;BME280;66129;45.890;13.714;2023-10-13T03:34:05;101540.59;;;17.11;100.00
77159;BME280;66129;45.890;13.714;2023-10-13T03:36:31;101540.56;;;17.03;100.00
77159;BME280;66129;45.890;13.714;2023-10-13T03:39:15;101539.66;;;16.98;100.00
77159;BME280;66129;45.890;13.714;2023-10-13T03:41:40;101535.34;;;16.97;100.00
77159;BME280;66129;45.890;13.714;2023-10-13T03:44:06;101548.31;;;17.00;100.00
77159;BME280;66129;45.890;13.714;2023-10-13T03:46:40;101520.63;;;16.95;100.00
77159;BME280;66129;45.890;13.714;2023-10-13T03:49:10;101541.34;;;16.98;100.00
77159;BME280;66129;45.890;13.714;2023-10-13T03:51:41;101537.97;;;17.06;100.00
77159;BME280;66129;45.890;13.714;2023-10-13T03:54:06;101536.22;;;17.04;100.00
77159;BME280;66129;45.890;13.714;2023-10-13T03:56:35;101531.88;;;16.98;100.00
77159;BME280;66129;45.890;13.714;2023-10-13T03:59:03;101533.56;;;16.95;100.00
77159;BME280;66129;45.890;13.714;2023-10-13T04:01:35;101534.34;;;16.79;100.00
77159;BME280;66129;45.890;13.714;2023-10-13T04:04:11;101538.66;;;16.81;100.00
77159;BME280;66129;45.890;13.714;2023-10-13T04:06:38;101536.16;;;16.89;100.00
77159;BME280;66129;45.890;13.714;2023-10-13T04:09:20;101539.63;;;16.94;100.00
77159;BME280;66129;45.890;13.714;2023-10-13T04:12:03;101539.66;;;16.98;100.00
77159;BME280;66129;45.890;13.714;2023-10-13T04:14:29;101537.09;;;17.01;100.00
77159;BME280;66129;45.890;13.714;2023-10-13T04:17:07;101524.09;;;17.00;100.00
77159;BME280;66129;45.890;13.714;2023-10-13T04:19:39;101518.03;;;16.98;100.00
77159;BME280;66129;45.890;13.714;2023-10-13T04:22:25;101530.97;;;16.93;100.00
77159;BME280;66129;45.890;13.714;2023-10-13T04:25:24;101532.69;;;16.91;100.00
77159;BME280;66129;45.890;13.714;2023-10-13T04:28:09;101519.75;;;16.94;100.00
77159;BME280;66129;45.890;13.714;2023-10-13T04:30:58;101528.47;;;17.02;100.00
77159;BME280;66129;45.890;13.714;2023-10-13T04:33:24;101531.09;;;17.08;100.00
77159;BME280;66129;45.890;13.714;2023-10-13T04:36:09;101525.84;;;16.99;100.00
77159;BME280;66129;45.890;13.714;2023-10-13T04:38:44;101521.50;;;16.95;100.00
77159;BME280;66129;45.890;13.714;2023-10-13T04:41:30;101527.59;;;17.05;100.00
77159;BME280;66129;45.890;13.714;2023-10-13T04:44:22;101520.66;;;16.96;100.00
77159;BME280;66129;45.890;13.714;2023-10-13T04:47:06;101519.78;;;16.93;100.00
77159;BME280;66129;45.890;13.714;2023-10-13T04:49:39;101520.63;;;16.93;100.00
77159;BME280;66129;45.890;13.714;2023-10-13T04:52:08;101527.56;;;16.99;100.00
77159;BME280;66129;45.890;13.714;2023-10-13T04:54:42;101537.09;;;17.01;100.00
77159;BME280;66129;45.890;13.714;2023-10-13T04:57:15;101546.56;;;16.99;100.00
77159;BME280;66129;45.890;13.714;2023-10-13T05:00:04;101547.41;;;17.00;100.00
77159;BME280;66129;45.890;13.714;2023-10-13T05:02:40;101546.56;;;16.99;100.00
77159;BME280;66129;45.890;13.714;2023-10-13T05:05:12;101549.16;;;16.99;100.00
77159;BME280;66129;45.890;13.714;2023-10-13T05:07:44;101532.72;;;16.93;100.00
77159;BME280;66129;45.890;13.714;2023-10-13T05:10:32;101548.22;;;16.91;100.00
77159;BME280;66129;45.890;13.714;2023-10-13T05:13:16;101545.59;;;16.85;100.00
77159;BME280;66129;45.890;13.714;2023-10-13T05:16:00;101558.56;;;16.88;100.00
77159;BME280;66129;45.890;13.714;2023-10-13T05:18:44;101561.16;;;16.88;100.00
77159;BME280;66129;45.890;13.714;2023-10-13T05:21:28;101550.81;;;16.88;100.00
77159;BME280;66129;45.890;13.714;2023-10-13T05:24:12;101558.63;;;16.94;100.00
77159;BME280;66129;45.890;13.714;2023-10-13T05:26:56;101559.53;;;16.99;100.00
77159;BME280;66129;45.890;13.714;2023-10-13T05:29:41;101569.03;;;17.02;100.00
77159;BME280;66129;45.890;13.714;2023-10-13T05:32:26;101556.94;;;16.99;100.00
77159;BME280;66129;45.890;13.714;2023-10-13T05:35:10;101564.75;;;17.05;100.00
77159;BME280;66129;45.890;13.714;2023-10-13T05:37:54;101569.91;;;17.07;100.00
77159;BME280;66129;45.890;13.714;2023-10-13T05:40:38;101562.13;;;17.04;100.00
77159;BME280;66129;45.890;13.714;2023-10-13T05:43:22;101578.56;;;17.10;100.00
77159;BME280;66129;45.890;13.714;2023-10-13T05:46:06;101578.56;;;17.07;100.00
77159;BME280;66129;45.890;13.714;2023-10-13T05:48:50;101597.59;;;17.15;100.00
77159;BME280;66129;45.890;13.714;2023-10-13T05:51:29;101588.09;;;17.13;100.00
77159;BME280;66129;45.890;13.714;2023-10-13T05:53:57;101581.22;;;17.19;100.00
77159;BME280;66129;45.890;13.714;2023-10-13T05:56:48;101590.75;;;17.23;100.00
77159;BME280;66129;45.890;13.714;2023-10-13T05:59:34;101581.25;;;17.22;100.00
77159;BME280;66129;45.890;13.714;2023-10-13T06:02:19;101595.16;;;17.35;100.00
77159;BME280;66129;45.890;13.714;2023-10-13T06:05:10;101592.59;;;17.36;100.00
77159;BME280;66129;45.890;13.714;2023-10-13T06:07:54;101587.41;;;17.36;100.00
77159;BME280;66129;45.890;13.714;2023-10-13T06:10:40;101587.44;;;17.44;100.00
77159;BME280;66129;45.890;13.714;2023-10-13T06:13:25;101587.41;;;17.42;100.00
77159;BME280;66129;45.890;13.714;2023-10-13T06:16:16;101581.41;;;17.48;100.00
77159;BME280;66129;45.890;13.714;2023-10-13T06:19:00;101602.19;;;17.60;100.00
77159;BME280;66129;45.890;13.714;2023-10-13T06:21:45;101596.16;;;17.56;100.00
77159;BME280;66129;45.890;13.714;2023-10-13T06:24:30;101603.97;;;17.62;100.00
77159;BME280;66129;45.890;13.714;2023-10-13T06:27:15;101599.66;;;17.64;100.00
77159;BME280;66129;45.890;13.714;2023-10-13T06:30:03;101608.34;;;17.81;100.00
77159;BME280;66129;45.890;13.714;2023-10-13T06:32:32;101601.44;;;17.87;100.00
77159;BME280;66129;45.890;13.714;2023-10-13T06:34:58;101604.94;;;18.03;100.00
77159;BME280;66129;45.890;13.714;2023-10-13T06:37:30;101619.69;;;18.17;100.00
77159;BME280;66129;45.890;13.714;2023-10-13T06:39:57;101611.06;;;18.17;100.00
77159;BME280;66129;45.890;13.714;2023-10-13T06:42:33;101618.91;;;18.30;100.00
77159;BME280;66129;45.890;13.714;2023-10-13T06:45:08;101613.72;;;18.29;100.00
77159;BME280;66129;45.890;13.714;2023-10-13T06:47:35;101619.78;;;18.37;100.00
77159;BME280;66129;45.890;13.714;2023-10-13T06:50:06;101626.69;;;18.45;100.00
77159;BME280;66129;45.890;13.714;2023-10-13T06:52:43;101626.72;;;18.53;100.00
77159;BME280;66129;45.890;13.714;2023-10-13T06:55:09;101630.19;;;18.65;100.00
77159;BME280;66129;45.890;13.714;2023-10-13T06:57:45;101638.00;;;18.76;100.00
77159;BME280;66129;45.890;13.714;2023-10-13T07:00:12;101631.94;;;18.83;100.00
77159;BME280;66129;45.890;13.714;2023-10-13T07:02:57;101641.44;;;18.98;100.00
77159;BME280;66129;45.890;13.714;2023-10-13T07:05:37;101636.25;;;19.10;100.00
77159;BME280;66129;45.890;13.714;2023-10-13T07:08:06;101638.88;;;19.18;100.00
77159;BME280;66129;45.890;13.714;2023-10-13T07:10:32;101651.00;;;19.25;100.00
77159;BME280;66129;45.890;13.714;2023-10-13T07:13:13;101651.81;;;19.48;100.00
77159;BME280;66129;45.890;13.714;2023-10-13T07:15:39;101648.19;;;19.86;100.00
77159;BME280;66129;45.890;13.714;2023-10-13T07:18:13;101656.72;;;20.27;100.00
77159;BME280;66129;45.890;13.714;2023-10-13T07:20:42;101659.22;;;20.46;100.00
77159;BME280;66129;45.890;13.714;2023-10-13T07:23:13;101657.47;;;20.45;99.62
77159;BME280;66129;45.890;13.714;2023-10-13T07:25:56;101654.72;;;20.69;98.00
77159;BME280;66129;45.890;13.714;2023-10-13T07:28:28;101656.19;;;21.05;96.49
77159;BME280;66129;45.890;13.714;2023-10-13T07:30:56;101649.78;;;21.35;95.64
77159;BME280;66129;45.890;13.714;2023-10-13T07:33:25;101645.00;;;21.79;93.07
77159;BME280;66129;45.890;13.714;2023-10-13T07:36:07;101656.78;;;22.09;90.04
77159;BME280;66129;45.890;13.714;2023-10-13T07:38:46;101660.72;;;22.41;87.25
77159;BME280;66129;45.890;13.714;2023-10-13T07:41:34;101660.28;;;22.71;87.06
77159;BME280;66129;45.890;13.714;2023-10-13T07:44:01;101655.38;;;23.03;84.42
77159;BME280;66129;45.890;13.714;2023-10-13T07:46:30;101664.13;;;23.02;83.27
77159;BME280;66129;45.890;13.714;2023-10-13T07:48:58;101658.59;;;23.21;82.99
77159;BME280;66129;45.890;13.714;2023-10-13T07:51:40;101670.84;;;23.18;83.28
77159;BME280;66129;45.890;13.714;2023-10-13T07:54:15;101662.25;;;23.11;82.65
77159;BME280;66129;45.890;13.714;2023-10-13T07:56:50;101662.44;;;23.48;83.21
77159;BME280;66129;45.890;13.714;2023-10-13T07:59:16;101659.19;;;23.80;81.52
77159;BME280;66129;45.890;13.714;2023-10-13T08:01:41;101671.94;;;23.97;78.17
77159;BME280;66129;45.890;13.714;2023-10-13T08:04:09;101658.19;;;24.28;76.45
77159;BME280;66129;45.890;13.714;2023-10-13T08:06:38;101659.22;;;24.20;78.53
77159;BME280;66129;45.890;13.714;2023-10-13T08:09:08;101664.22;;;24.32;76.04
77159;BME280;66129;45.890;13.714;2023-10-13T08:11:37;101655.25;;;24.42;75.83
77159;BME280;66129;45.890;13.714;2023-10-13T08:14:04;101657.28;;;24.67;74.91
77159;BME280;66129;45.890;13.714;2023-10-13T08:16:40;101660.31;;;24.87;73.43
77159;BME280;66129;45.890;13.714;2023-10-13T08:19:21;101663.03;;;25.17;72.42
77159;BME280;66129;45.890;13.714;2023-10-13T08:21:57;101649.16;;;25.14;70.01
77159;BME280;66129;45.890;13.714;2023-10-13T08:24:25;101669.97;;;25.20;69.75
77159;BME280;66129;45.890;13.714;2023-10-13T08:27:12;101669.97;;;25.20;70.74
77159;BME280;66129;45.890;13.714;2023-10-13T08:29:45;101658.31;;;24.96;70.33
77159;BME280;66129;45.890;13.714;2023-10-13T08:32:29;101661.91;;;25.27;70.66
77159;BME280;66129;45.890;13.714;2023-10-13T08:34:56;101667.09;;;25.61;69.94
77159;BME280;66129;45.890;13.714;2023-10-13T08:37:22;101663.34;;;26.01;67.64
77159;BME280;66129;45.890;13.714;2023-10-13T08:39:52;101663.66;;;26.19;66.82
77159;BME280;66129;45.890;13.714;2023-10-13T08:45:15;101673.63;;;26.37;66.98
77159;BME280;66129;45.890;13.714;2023-10-13T08:47:55;101683.66;;;26.54;66.11
77159;BME280;66129;45.890;13.714;2023-10-13T08:50:49;101681.38;;;26.69;66.68
77159;BME280;66129;45.890;13.714;2023-10-13T08:53:16;101672.84;;;26.34;65.85
77159;BME280;66129;45.890;13.714;2023-10-13T08:56:08;101682.25;;;25.51;70.18
77159;BME280;66129;45.890;13.714;2023-10-13T08:58:36;101672.06;;;25.06;72.23
77159;BME280;66129;45.890;13.714;2023-10-13T09:01:24;101683.38;;;24.73;73.80
77159;BME280;66129;45.890;13.714;2023-10-13T09:04:10;101684.53;;;24.21;77.41
77159;BME280;66129;45.890;13.714;2023-10-13T09:12:24;101690.72;;;23.74;79.38
77159;BME280;66129;45.890;13.714;2023-10-13T09:15:07;101683.91;;;23.66;81.21
77159;BME280;66129;45.890;13.714;2023-10-13T09:17:49;101681.66;;;23.47;82.53
77159;BME280;66129;45.890;13.714;2023-10-13T09:20:16;101679.22;;;23.38;82.28
77159;BME280;66129;45.890;13.714;2023-10-13T09:22:54;101690.72;;;23.28;84.03
77159;BME280;66129;45.890;13.714;2023-10-13T09:25:36;101691.78;;;23.18;84.26
77159;BME280;66129;45.890;13.714;2023-10-13T09:30:45;101676.00;;;23.22;85.67
77159;BME280;66129;45.890;13.714;2023-10-13T09:33:11;101678.50;;;23.28;85.08
77159;BME280;66129;45.890;13.714;2023-10-13T09:35:46;101688.81;;;23.37;84.70
77159;BME280;66129;45.890;13.714;2023-10-13T09:38:18;101669.84;;;23.25;85.21
77159;BME280;66129;45.890;13.714;2023-10-13T09:40:44;101680.72;;;23.51;84.69
77159;BME280;66129;45.890;13.714;2023-10-13T09:43:17;101681.19;;;23.70;84.02
77159;BME280;66129;45.890;13.714;2023-10-13T09:45:46;101678.88;;;23.99;82.22
77159;BME280;66129;45.890;13.714;2023-10-13T09:48:35;101679.06;;;24.31;79.97
77159;BME280;66129;45.890;13.714;2023-10-13T09:51:03;101689.47;;;24.34;78.39
77159;BME280;66129;45.890;13.714;2023-10-13T09:53:34;101670.00;;;24.06;79.91
77159;BME280;66129;45.890;13.714;2023-10-13T09:56:32;101674.63;;;23.95;80.59
77159;BME280;66129;45.890;13.714;2023-10-13T09:59:08;101667.84;;;23.84;82.84
77159;BME280;66129;45.890;13.714;2023-10-13T10:01:41;101672.53;;;23.68;83.67
77159;BME280;66129;45.890;13.714;2023-10-13T10:04:16;101666.50;;;23.63;82.98
77159;BME280;66129;45.890;13.714;2023-10-13T10:09:17;101662.44;;;23.48;84.05
77159;BME280;66129;45.890;13.714;2023-10-13T10:12:06;101663.38;;;23.44;85.38
77159;BME280;66129;45.890;13.714;2023-10-13T10:17:08;101666.19;;;23.35;86.03
77159;BME280;66129;45.890;13.714;2023-10-13T10:19:53;101664.38;;;23.38;86.89
77159;BME280;66129;45.890;13.714;2023-10-13T10:22:27;101648.69;;;23.37;87.35
77159;BME280;66129;45.890;13.714;2023-10-13T10:24:57;101653.75;;;23.46;86.89
77159;BME280;66129;45.890;13.714;2023-10-13T10:27:29;101642.00;;;23.67;85.97
77159;BME280;66129;45.890;13.714;2023-10-13T10:29:56;101646.09;;;23.80;85.41
77159;BME280;66129;45.890;13.714;2023-10-13T10:32:35;101645.53;;;24.07;83.60
77159;BME280;66129;45.890;13.714;2023-10-13T10:35:08;101644.81;;;23.99;82.88
77159;BME280;66129;45.890;13.714;2023-10-13T10:37:41;101642.69;;;23.75;82.84
77159;BME280;66129;45.890;13.714;2023-10-13T10:42:52;101649.03;;;23.64;84.11
77159;BME280;66129;45.890;13.714;2023-10-13T10:45:18;101644.06;;;23.51;85.10
77159;BME280;66129;45.890;13.714;2023-10-13T10:47:48;101609.63;;;23.26;85.32
77159;BME280;66129;45.890;13.714;2023-10-13T10:50:13;101632.06;;;23.39;85.86
77159;BME280;66129;45.890;13.714;2023-10-13T10:52:52;101623.41;;;23.36;87.67
77159;BME280;66129;45.890;13.714;2023-10-13T10:55:22;101620.75;;;23.39;88.67
77159;BME280;66129;45.890;13.714;2023-10-13T10:58:00;101622.38;;;23.44;86.51
77159;BME280;66129;45.890;13.714;2023-10-13T11:00:32;101613.59;;;23.47;85.88
77159;BME280;66129;45.890;13.714;2023-10-13T11:03:12;101625.63;;;23.57;86.08
77159;BME280;66129;45.890;13.714;2023-10-13T11:05:47;101607.53;;;23.45;87.10
77159;BME280;66129;45.890;13.714;2023-10-13T11:08:25;101620.66;;;23.42;87.15
77159;BME280;66129;45.890;13.714;2023-10-13T11:11:03;101601.72;;;23.29;88.38
77159;BME280;66129;45.890;13.714;2023-10-13T11:13:43;101592.28;;;23.22;87.18
77159;BME280;66129;45.890;13.714;2023-10-13T11:16:28;101594.84;;;23.24;85.99
77159;BME280;66129;45.890;13.714;2023-10-13T11:19:03;101602.69;;;23.24;86.99
77159;BME280;66129;45.890;13.714;2023-10-13T11:21:30;101613.78;;;23.38;89.59
77159;BME280;66129;45.890;13.714;2023-10-13T11:23:57;101596.28;;;23.40;87.94
77159;BME280;66129;45.890;13.714;2023-10-13T11:26:33;101593.13;;;23.66;86.80
77159;BME280;66129;45.890;13.714;2023-10-13T11:28:59;101592.72;;;23.86;84.42
77159;BME280;66129;45.890;13.714;2023-10-13T11:31:24;101593.16;;;24.06;83.23
77159;BME280;66129;45.890;13.714;2023-10-13T11:33:50;101593.75;;;24.18;85.08
77159;BME280;66129;45.890;13.714;2023-10-13T11:36:17;101584.88;;;24.25;81.94
77159;BME280;66129;45.890;13.714;2023-10-13T11:38:47;101581.25;;;24.29;81.31
77159;BME280;66129;45.890;13.714;2023-10-13T11:41:12;101575.22;;;24.27;81.24
77159;BME280;66129;45.890;13.714;2023-10-13T11:43:50;101590.56;;;24.42;80.76
77159;BME280;66129;45.890;13.714;2023-10-13T11:46:19;101559.38;;;24.32;79.66
77159;BME280;66129;45.890;13.714;2023-10-13T11:49:10;101560.97;;;24.37;77.11
77159;BME280;66129;45.890;13.714;2023-10-13T11:51:45;101577.91;;;24.59;76.66
77159;BME280;66129;45.890;13.714;2023-10-13T11:54:22;101552.31;;;24.34;74.27
77159;BME280;66129;45.890;13.714;2023-10-13T11:56:49;101556.75;;;24.30;77.38
77159;BME280;66129;45.890;13.714;2023-10-13T11:59:15;101567.75;;;24.46;77.72
77159;BME280;66129;45.890;13.714;2023-10-13T12:01:45;101558.09;;;24.49;76.10
77159;BME280;66129;45.890;13.714;2023-10-13T12:04:29;101563.09;;;24.91;72.81
77159;BME280;66129;45.890;13.714;2023-10-13T12:07:09;101565.44;;;25.02;70.77
77159;BME280;66129;45.890;13.714;2023-10-13T12:10:10;101565.81;;;25.52;73.23
77159;BME280;66129;45.890;13.714;2023-10-13T12:12:58;101548.50;;;25.74;70.49
77159;BME280;66129;45.890;13.714;2023-10-13T12:15:31;101543.25;;;25.74;70.01
77159;BME280;66129;45.890;13.714;2023-10-13T12:18:03;101549.97;;;26.11;70.24
77159;BME280;66129;45.890;13.714;2023-10-13T12:20:29;101550.25;;;26.30;69.02
77159;BME280;66129;45.890;13.714;2023-10-13T12:23:01;101546.09;;;26.76;65.69
77159;BME280;66129;45.890;13.714;2023-10-13T12:25:37;101523.53;;;26.69;65.45
77159;BME280;66129;45.890;13.714;2023-10-13T12:28:19;101537.19;;;26.28;66.25
77159;BME280;66129;45.890;13.714;2023-10-13T12:30:47;101542.44;;;25.72;67.77
77159;BME280;66129;45.890;13.714;2023-10-13T12:33:17;101554.13;;;25.33;69.38
77159;BME280;66129;45.890;13.714;2023-10-13T12:38:39;101538.81;;;24.83;71.77
77159;BME280;66129;45.890;13.714;2023-10-13T12:41:11;101536.34;;;24.79;73.95
77159;BME280;66129;45.890;13.714;2023-10-13T12:43:55;101532.34;;;24.65;74.29
77159;BME280;66129;45.890;13.714;2023-10-13T12:46:39;101522.84;;;24.61;76.55
77159;BME280;66129;45.890;13.714;2023-10-13T12:49:23;101537.81;;;24.56;76.64
77159;BME280;66129;45.890;13.714;2023-10-13T12:52:07;101528.47;;;24.44;75.78
77159;BME280;66129;45.890;13.714;2023-10-13T12:54:42;101522.47;;;24.39;76.29
77159;BME280;66129;45.890;13.714;2023-10-13T12:57:15;101533.03;;;24.36;77.75
77159;BME280;66129;45.890;13.714;2023-10-13T12:59:41;101519.28;;;24.28;77.31
77159;BME280;66129;45.890;13.714;2023-10-13T13:02:07;101524.47;;;24.30;76.77
77159;BME280;66129;45.890;13.714;2023-10-13T13:04:42;101519.97;;;24.35;78.50
77159;BME280;66129;45.890;13.714;2023-10-13T13:07:13;101507.91;;;24.28;77.66
77159;BME280;66129;45.890;13.714;2023-10-13T13:09:40;101510.47;;;24.29;76.75
77159;BME280;66129;45.890;13.714;2023-10-13T13:12:06;101513.78;;;24.37;78.44
77159;BME280;66129;45.890;13.714;2023-10-13T13:14:31;101516.38;;;24.39;78.26
77159;BME280;66129;45.890;13.714;2023-10-13T13:17:00;101509.44;;;24.36;78.21
77159;BME280;66129;45.890;13.714;2023-10-13T13:19:35;101511.31;;;24.31;76.53
77159;BME280;66129;45.890;13.714;2023-10-13T13:22:08;101498.31;;;24.28;77.78
77159;BME280;66129;45.890;13.714;2023-10-13T13:24:40;101495.69;;;24.28;78.88
77159;BME280;66129;45.890;13.714;2023-10-13T13:27:16;101492.88;;;24.34;77.89
77159;BME280;66129;45.890;13.714;2023-10-13T13:29:48;101490.31;;;24.33;77.33
77159;BME280;66129;45.890;13.714;2023-10-13T13:32:14;101493.72;;;24.36;77.66
77159;BME280;66129;45.890;13.714;2023-10-13T13:34:53;101495.22;;;24.45;76.79
77159;BME280;66129;45.890;13.714;2023-10-13T13:37:36;101491.72;;;24.47;73.45